createdAt,value
2022-12-01T00:00:29.854Z,22.50
2022-12-01T00:02:57.110Z,24.58
2022-12-01T00:05:24.447Z,22.17
2022-12-01T00:07:51.638Z,30.30
2022-12-01T00:10:28.537Z,21.98
2022-12-01T00:12:55.899Z,27.70
2022-12-01T00:15:24.059Z,21.65
2022-12-01T00:17:51.296Z,22.52
2022-12-01T00:20:18.901Z,23.55
2022-12-01T00:22:46.450Z,21.20
2022-12-01T00:25:14.442Z,20.42
2022-12-01T00:27:41.603Z,22.92
2022-12-01T00:30:10.314Z,21.02
2022-12-01T00:32:37.534Z,18.80
2022-12-01T00:35:05.371Z,20.40
2022-12-01T00:37:33.590Z,19.25
2022-12-01T00:40:00.808Z,19.35
2022-12-01T00:42:28.400Z,19.10
2022-12-01T00:44:55.550Z,19.33
2022-12-01T00:47:22.711Z,19.35
2022-12-01T00:49:50.120Z,19.52
2022-12-01T00:52:17.706Z,19.27
2022-12-01T00:54:45.030Z,17.90
2022-12-01T00:57:12.548Z,18.60
2022-12-01T00:59:39.774Z,18.92
2022-12-01T01:02:08.086Z,18.20
2022-12-01T01:04:35.845Z,16.23
2022-12-01T01:07:03.129Z,17.88
2022-12-01T01:09:31.684Z,16.90
2022-12-01T01:11:58.939Z,19.45
2022-12-01T01:14:26.214Z,17.23
2022-12-01T01:16:54.402Z,17.83
2022-12-01T01:19:21.579Z,17.85
2022-12-01T01:21:48.696Z,17.67
2022-12-01T01:24:15.850Z,15.80
2022-12-01T01:26:43.003Z,16.83
2022-12-01T01:29:11.186Z,15.82
2022-12-01T01:31:38.574Z,17.05
2022-12-01T01:34:05.852Z,15.95
2022-12-01T01:36:33.153Z,16.20
2022-12-01T01:39:01.593Z,17.60
2022-12-01T01:41:29.228Z,14.45
2022-12-01T01:44:01.844Z,15.48
2022-12-01T01:46:32.848Z,19.42
2022-12-01T01:49:05.482Z,15.55
2022-12-01T01:51:41.852Z,16.45
2022-12-01T01:54:15.650Z,16.50
2022-12-01T01:56:44.335Z,15.50
2022-12-01T01:59:14.069Z,14.05
2022-12-01T02:01:41.278Z,15.20
2022-12-01T02:04:08.479Z,14.25
2022-12-01T02:06:35.621Z,14.45
2022-12-01T02:09:02.817Z,14.50
2022-12-01T02:11:48.961Z,14.43
2022-12-01T02:14:40.480Z,14.90
2022-12-01T02:17:26.600Z,14.07
2022-12-01T02:20:11.299Z,13.27
2022-12-01T02:22:54.113Z,13.77
2022-12-01T02:25:22.891Z,12.63
2022-12-01T02:28:11.691Z,12.55
2022-12-01T02:30:41.724Z,13.23
2022-12-01T02:33:15.978Z,13.43
2022-12-01T02:35:48.959Z,12.63
2022-12-01T02:38:28.140Z,13.77
2022-12-01T02:40:59.416Z,12.82
2022-12-01T02:43:34.115Z,13.40
2022-12-01T02:46:13.572Z,14.23
2022-12-01T02:48:43.040Z,11.85
2022-12-01T02:51:12.565Z,13.55
2022-12-01T02:53:39.820Z,13.80
2022-12-01T02:56:08.078Z,11.50
2022-12-01T02:58:35.285Z,12.32
2022-12-01T03:01:08.440Z,12.50
2022-12-01T03:03:45.121Z,14.15
2022-12-01T03:06:16.708Z,10.52
2022-12-01T03:08:45.996Z,12.00
2022-12-01T03:11:27.135Z,12.40
2022-12-01T03:14:15.322Z,12.18
2022-12-01T03:16:55.090Z,11.98
2022-12-01T03:19:25.376Z,12.50
2022-12-01T03:21:59.066Z,10.70
2022-12-01T03:24:29.391Z,11.23
2022-12-01T03:26:57.861Z,10.93
2022-12-01T03:29:31.120Z,11.20
2022-12-01T03:32:07.493Z,12.02
2022-12-01T03:34:40.538Z,12.73
2022-12-01T03:37:09.994Z,10.85
2022-12-01T03:39:38.808Z,10.00
2022-12-01T03:42:22.073Z,10.55
2022-12-01T03:44:51.427Z,10.95
2022-12-01T03:47:21.609Z,10.98
2022-12-01T03:49:50.674Z,10.13
2022-12-01T03:52:28.408Z,10.95
2022-12-01T03:54:58.571Z,9.98
2022-12-01T03:57:36.446Z,9.68
2022-12-01T04:00:04.436Z,10.75
2022-12-01T04:02:31.944Z,9.73
2022-12-01T04:04:59.119Z,8.93
2022-12-01T04:07:26.305Z,10.00
2022-12-01T04:09:53.483Z,17.90
2022-12-01T04:12:29.980Z,11.63
2022-12-01T04:14:58.204Z,9.07
2022-12-01T04:17:25.705Z,9.25
2022-12-01T04:19:52.898Z,10.10
2022-12-01T04:22:20.130Z,8.65
2022-12-01T04:24:47.560Z,8.95
2022-12-01T04:27:14.941Z,9.88
2022-12-01T04:29:42.116Z,8.60
2022-12-01T04:32:09.339Z,9.13
2022-12-01T04:34:36.555Z,9.07
2022-12-01T04:37:04.631Z,9.18
2022-12-01T04:39:31.789Z,9.15
2022-12-01T04:41:58.926Z,11.10
2022-12-01T04:44:28.960Z,9.18
2022-12-01T04:47:00.323Z,8.23
2022-12-01T04:49:27.674Z,8.45
2022-12-01T04:51:54.919Z,9.43
2022-12-01T04:54:22.380Z,8.35
2022-12-01T04:56:49.605Z,8.88
2022-12-01T04:59:16.777Z,8.02
2022-12-01T05:01:44.716Z,8.48
2022-12-01T05:04:15.668Z,8.57
2022-12-01T05:06:43.217Z,8.93
2022-12-01T05:09:16.896Z,8.02
2022-12-01T05:11:45.033Z,7.70
2022-12-01T05:14:12.159Z,7.72
2022-12-01T05:16:39.499Z,7.78
2022-12-01T05:19:25.767Z,9.48
2022-12-01T05:21:53.087Z,12.00
2022-12-01T05:24:21.065Z,8.18
2022-12-01T05:26:48.640Z,9.52
2022-12-01T05:29:16.043Z,9.25
2022-12-01T05:31:43.271Z,8.68
2022-12-01T05:34:10.513Z,8.25
2022-12-01T05:36:37.668Z,8.10
2022-12-01T05:39:05.326Z,8.27
2022-12-01T05:41:32.528Z,7.97
2022-12-01T05:43:59.786Z,8.50
2022-12-01T05:46:27.083Z,10.02
2022-12-01T05:48:54.270Z,6.88
2022-12-01T05:51:21.413Z,7.60
2022-12-01T05:53:48.583Z,8.23
2022-12-01T05:56:15.780Z,7.65
2022-12-01T05:58:42.980Z,8.95
2022-12-01T06:01:10.756Z,7.25
2022-12-01T06:03:37.944Z,8.82
2022-12-01T06:06:05.207Z,10.38
2022-12-01T06:08:32.355Z,14.43
2022-12-01T06:10:59.561Z,10.25
2022-12-01T06:13:26.849Z,8.18
2022-12-01T06:16:01.013Z,14.85
2022-12-01T06:18:28.299Z,12.65
2022-12-01T06:20:55.474Z,14.43
2022-12-01T06:23:26.317Z,13.30
2022-12-01T06:25:56.108Z,15.60
2022-12-01T06:28:23.279Z,8.65
2022-12-01T06:30:50.455Z,13.82
2022-12-01T06:33:18.178Z,9.30
2022-12-01T06:35:45.328Z,10.13
2022-12-01T06:38:12.648Z,10.95
2022-12-01T06:40:42.723Z,10.80
2022-12-01T06:43:09.847Z,8.70
2022-12-01T06:45:37.132Z,7.65
2022-12-01T06:48:04.468Z,7.05
2022-12-01T06:50:31.634Z,7.72
2022-12-01T06:52:59.421Z,8.13
2022-12-01T06:55:26.936Z,8.30
2022-12-01T06:57:54.711Z,7.78
2022-12-01T07:00:22.691Z,9.95
2022-12-01T07:02:49.895Z,7.22
2022-12-01T07:05:17.282Z,9.00
2022-12-01T07:07:44.927Z,7.93
2022-12-01T07:10:13.259Z,8.60
2022-12-01T07:12:40.779Z,11.30
2022-12-01T07:15:09.173Z,10.13
2022-12-01T07:17:36.752Z,8.15
2022-12-01T07:20:04.162Z,12.45
2022-12-01T07:22:33.005Z,11.40
2022-12-01T07:25:00.354Z,8.80
2022-12-01T07:27:29.988Z,9.75
2022-12-01T07:29:57.097Z,8.48
2022-12-01T07:32:24.462Z,9.38
2022-12-01T07:34:51.579Z,7.20
2022-12-01T07:37:18.747Z,11.13
2022-12-01T07:39:45.973Z,7.78
2022-12-01T07:42:13.102Z,13.80
2022-12-01T07:44:40.252Z,15.30
2022-12-01T07:47:07.694Z,8.15
2022-12-01T07:49:34.839Z,10.40
2022-12-01T07:52:02.185Z,11.45
2022-12-01T07:54:29.382Z,10.80
2022-12-01T07:56:56.468Z,11.75
2022-12-01T07:59:23.687Z,14.45
2022-12-01T08:01:50.917Z,10.30
2022-12-01T08:04:18.158Z,13.60
2022-12-01T08:06:45.319Z,9.73
2022-12-01T08:09:12.453Z,12.38
2022-12-01T08:11:39.688Z,10.63
2022-12-01T08:14:06.858Z,8.30
2022-12-01T08:16:34.117Z,9.60
2022-12-01T08:19:01.294Z,8.02
2022-12-01T08:21:28.446Z,8.07
2022-12-01T08:23:56.552Z,9.27
2022-12-01T08:26:24.385Z,7.50
2022-12-01T08:28:51.724Z,8.05
2022-12-01T08:31:19.015Z,8.10
2022-12-01T08:33:46.619Z,8.40
2022-12-01T08:36:13.847Z,12.57
2022-12-01T08:38:43.647Z,10.70
2022-12-01T08:41:11.514Z,8.48
2022-12-01T08:43:57.348Z,7.40
2022-12-01T08:46:29.669Z,10.20
2022-12-01T08:48:57.633Z,10.40
2022-12-01T08:51:25.225Z,10.50
2022-12-01T08:53:52.354Z,18.05
2022-12-01T08:56:19.535Z,12.40
2022-12-01T08:58:46.915Z,9.52
2022-12-01T09:01:15.824Z,11.73
2022-12-01T09:03:43.441Z,9.65
2022-12-01T09:06:15.246Z,11.45
2022-12-01T09:08:42.682Z,8.48
2022-12-01T09:11:19.623Z,10.13
2022-12-01T09:13:52.963Z,10.80
2022-12-01T09:16:21.911Z,9.87
2022-12-01T09:18:49.463Z,13.00
2022-12-01T09:21:17.914Z,10.63
2022-12-01T09:23:45.435Z,11.98
2022-12-01T09:26:13.968Z,10.52
2022-12-01T09:28:41.295Z,13.50
2022-12-01T09:31:09.489Z,9.93
2022-12-01T09:33:36.935Z,11.68
2022-12-01T09:36:04.850Z,17.88
2022-12-01T09:38:32.961Z,12.02
2022-12-01T09:41:20.772Z,12.27
2022-12-01T09:43:51.137Z,9.30
2022-12-01T09:46:21.446Z,7.38
2022-12-01T09:48:50.237Z,10.20
2022-12-01T09:51:24.734Z,11.95
2022-12-01T09:53:53.620Z,8.15
2022-12-01T09:56:22.349Z,8.13
2022-12-01T09:58:55.534Z,9.25
2022-12-01T10:01:27.503Z,10.98
2022-12-01T10:03:57.900Z,11.55
2022-12-01T10:06:39.348Z,9.45
2022-12-01T10:09:15.584Z,8.93
2022-12-01T10:11:44.790Z,15.25
2022-12-01T10:14:20.419Z,10.32
2022-12-01T10:17:00.168Z,15.95
2022-12-01T10:19:46.457Z,11.52
2022-12-01T10:22:32.191Z,14.43
2022-12-01T10:25:06.519Z,12.00
2022-12-01T10:27:55.438Z,15.40
2022-12-01T10:30:23.848Z,13.65
2022-12-01T10:32:56.187Z,11.57
2022-12-01T10:35:24.991Z,13.45
2022-12-01T10:37:55.586Z,11.55
2022-12-01T10:40:23.325Z,9.10
2022-12-01T10:42:51.687Z,14.23
2022-12-01T10:45:22.648Z,11.57
2022-12-01T10:48:08.690Z,13.38
2022-12-01T10:50:36.318Z,10.13
2022-12-01T10:53:03.790Z,11.05
2022-12-01T10:55:32.852Z,12.07
2022-12-01T10:58:06.190Z,12.65
2022-12-01T11:00:59.216Z,10.63
2022-12-01T11:03:34.726Z,10.05
2022-12-01T11:06:03.265Z,10.75
2022-12-01T11:08:30.450Z,11.70
2022-12-01T11:10:57.735Z,11.88
2022-12-01T11:13:28.365Z,9.43
2022-12-01T11:15:56.872Z,8.43
2022-12-01T11:18:32.906Z,11.30
2022-12-01T11:21:08.995Z,9.77
2022-12-01T11:23:37.322Z,10.60
2022-12-01T11:26:04.468Z,12.25
2022-12-01T11:28:32.323Z,6.88
2022-12-01T11:31:01.174Z,9.60
2022-12-01T11:33:28.902Z,10.77
2022-12-01T11:35:56.454Z,12.45
2022-12-01T11:38:29.842Z,9.88
2022-12-01T11:40:58.296Z,9.07
2022-12-01T11:43:27.412Z,11.10
2022-12-01T11:45:55.146Z,9.10
2022-12-01T11:48:26.831Z,9.48
2022-12-01T11:51:05.184Z,9.60
2022-12-01T11:53:39.828Z,9.57
2022-12-01T11:56:23.153Z,10.63
2022-12-01T11:58:52.308Z,9.90
2022-12-01T12:01:32.917Z,8.70
2022-12-01T12:04:09.334Z,8.07
2022-12-01T12:06:55.368Z,8.10
2022-12-01T12:09:28.885Z,7.97
2022-12-01T12:12:05.334Z,9.20
2022-12-01T12:14:39.313Z,7.93
2022-12-01T12:17:18.524Z,11.52
2022-12-01T12:20:18.044Z,10.68
2022-12-01T12:22:35.496Z,9.90
2022-12-01T12:25:25.584Z,10.98
2022-12-01T12:27:52.761Z,10.65
2022-12-01T12:30:22.056Z,8.18
2022-12-01T12:33:05.703Z,12.93
2022-12-01T12:35:41.797Z,7.90
2022-12-01T12:38:15.295Z,10.20
2022-12-01T12:40:42.658Z,6.63
2022-12-01T12:43:34.004Z,8.63
2022-12-01T12:46:27.555Z,11.35
2022-12-01T12:49:18.782Z,6.88
2022-12-01T12:51:48.447Z,8.60
2022-12-01T12:54:27.050Z,7.40
2022-12-01T12:57:05.514Z,10.13
2022-12-01T12:59:40.589Z,6.68
2022-12-01T13:02:19.073Z,7.72
2022-12-01T13:04:51.372Z,18.38
2022-12-01T13:07:38.349Z,22.98
2022-12-01T13:10:09.904Z,28.85
2022-12-01T13:12:40.202Z,92.97
2022-12-01T13:15:15.347Z,168.93
2022-12-01T13:17:44.806Z,295.02
2022-12-01T13:20:18.125Z,279.48
2022-12-01T13:22:46.053Z,207.85
2022-12-01T13:25:17.709Z,183.68
2022-12-01T13:27:45.562Z,206.40
2022-12-01T13:30:20.435Z,202.00
2022-12-01T13:32:48.051Z,200.70
2022-12-01T13:35:29.969Z,187.73
2022-12-01T13:38:12.566Z,186.77
2022-12-01T13:40:39.902Z,180.90
2022-12-01T13:43:15.445Z,181.98
2022-12-01T13:45:42.734Z,169.10
2022-12-01T13:48:29.806Z,169.45
2022-12-01T13:50:57.028Z,164.45
2022-12-01T13:53:24.150Z,159.90
2022-12-01T13:55:57.357Z,169.20
2022-12-01T13:58:26.376Z,153.50
2022-12-01T14:00:53.653Z,154.88
2022-12-01T14:03:20.928Z,148.32
2022-12-01T14:05:55.061Z,132.80
2022-12-01T14:08:35.452Z,139.27
2022-12-01T14:11:07.723Z,133.75
2022-12-01T14:13:47.161Z,126.50
2022-12-01T14:16:14.486Z,125.32
2022-12-01T14:18:50.123Z,129.77
2022-12-01T14:21:17.346Z,124.05
2022-12-01T14:24:07.593Z,121.90
2022-12-01T14:26:44.944Z,121.30
2022-12-01T14:29:25.541Z,124.18
2022-12-01T14:31:52.703Z,121.00
2022-12-01T14:34:24.476Z,121.95
2022-12-01T14:37:03.055Z,112.07
2022-12-01T14:39:37.979Z,116.97
2022-12-01T14:42:05.251Z,111.03
2022-12-01T14:44:36.429Z,116.55
2022-12-01T14:47:12.537Z,108.15
2022-12-01T14:49:58.259Z,105.22
2022-12-01T14:52:36.743Z,104.28
2022-12-01T14:55:05.783Z,104.13
2022-12-01T14:57:43.671Z,106.65
2022-12-01T15:00:15.188Z,102.18
2022-12-01T15:02:44.207Z,99.30
2022-12-01T15:05:16.081Z,97.53
2022-12-01T15:07:44.439Z,101.40
2022-12-01T15:10:23.941Z,99.60
2022-12-01T15:12:52.064Z,96.53
2022-12-01T15:15:24.463Z,97.93
2022-12-01T15:17:52.348Z,97.43
2022-12-01T15:20:29.848Z,103.30
2022-12-01T15:22:58.663Z,97.45
2022-12-01T15:25:26.683Z,102.57
2022-12-01T15:28:12.515Z,100.15
2022-12-01T15:30:41.384Z,90.63
2022-12-01T15:33:12.049Z,93.97
2022-12-01T15:35:41.610Z,88.57
2022-12-01T15:38:16.975Z,85.28
2022-12-01T15:41:27.816Z,84.20
2022-12-01T15:43:38.045Z,81.28
2022-12-01T15:46:25.644Z,86.22
2022-12-01T15:49:06.362Z,81.55
2022-12-01T15:51:33.533Z,84.25
2022-12-01T15:54:01.449Z,82.20
2022-12-01T15:56:33.403Z,91.32
2022-12-01T15:59:11.172Z,84.93
2022-12-01T16:01:39.087Z,81.65
2022-12-01T16:04:08.553Z,75.35
2022-12-01T16:06:37.087Z,74.60
2022-12-01T16:09:19.560Z,78.57
2022-12-01T16:12:06.063Z,74.97
2022-12-01T16:14:34.334Z,81.55
2022-12-01T16:17:01.733Z,87.70
2022-12-01T16:19:30.750Z,81.32
2022-12-01T16:22:00.646Z,72.03
2022-12-01T16:24:30.492Z,77.60
2022-12-01T16:27:08.226Z,83.18
2022-12-01T16:30:04.801Z,75.63
2022-12-01T16:32:34.237Z,72.03
2022-12-01T16:35:01.736Z,77.10
2022-12-01T16:37:29.247Z,77.97
2022-12-01T16:39:56.421Z,71.28
2022-12-01T16:42:23.593Z,78.50
2022-12-01T16:44:51.582Z,77.35
2022-12-01T16:47:21.076Z,67.25
2022-12-01T16:49:48.493Z,67.78
2022-12-01T16:52:43.165Z,69.95
2022-12-01T16:55:02.931Z,71.28
2022-12-01T16:57:30.176Z,69.55
2022-12-01T16:59:57.342Z,66.18
2022-12-01T17:02:24.595Z,67.18
2022-12-01T17:04:52.104Z,61.60
2022-12-01T17:07:19.499Z,66.50
2022-12-01T17:09:46.795Z,64.28
2022-12-01T17:12:14.059Z,57.97
2022-12-01T17:14:42.483Z,65.13
2022-12-01T17:17:09.921Z,64.07
2022-12-01T17:19:37.048Z,56.75
2022-12-01T17:22:04.152Z,58.85
2022-12-01T17:24:31.327Z,56.25
2022-12-01T17:26:58.581Z,52.42
2022-12-01T17:29:28.683Z,56.55
2022-12-01T17:31:55.854Z,62.35
2022-12-01T17:34:23.065Z,52.17
2022-12-01T17:36:51.687Z,55.15
2022-12-01T17:39:19.454Z,56.83
2022-12-01T17:41:46.615Z,50.60
2022-12-01T17:44:13.737Z,54.08
2022-12-01T17:46:42.052Z,50.13
2022-12-01T17:49:10.561Z,51.40
2022-12-01T17:51:37.834Z,51.50
2022-12-01T17:54:05.367Z,50.45
2022-12-01T17:56:32.592Z,48.17
2022-12-01T17:58:59.720Z,44.97
2022-12-01T18:01:30.348Z,48.88
2022-12-01T18:03:58.948Z,47.78
2022-12-01T18:06:26.930Z,48.10
2022-12-01T18:08:54.383Z,46.25
2022-12-01T18:11:22.853Z,47.92
2022-12-01T18:13:50.804Z,46.85
2022-12-01T18:16:19.670Z,48.90
2022-12-01T18:18:47.034Z,47.67
2022-12-01T18:21:15.467Z,44.58
2022-12-01T18:23:42.651Z,44.45
2022-12-01T18:26:15.785Z,43.05
2022-12-01T18:28:43.393Z,45.25
2022-12-01T18:31:12.323Z,42.00
2022-12-01T18:33:40.352Z,42.85
2022-12-01T18:36:12.849Z,42.80
2022-12-01T18:38:40.153Z,40.45
2022-12-01T18:41:09.702Z,41.60
2022-12-01T18:43:37.345Z,38.17
2022-12-01T18:46:05.430Z,34.63
2022-12-01T18:48:32.936Z,34.90
2022-12-01T18:51:04.698Z,34.03
2022-12-01T18:53:32.191Z,36.42
2022-12-01T18:56:03.584Z,36.83
2022-12-01T18:58:31.384Z,39.75
2022-12-01T19:00:58.949Z,37.75
2022-12-01T19:03:26.283Z,36.50
2022-12-01T19:05:53.452Z,38.55
2022-12-01T19:08:23.309Z,42.08
2022-12-01T19:11:03.526Z,36.55
2022-12-01T19:13:31.199Z,36.55
2022-12-01T19:15:58.482Z,39.03
2022-12-01T19:18:25.889Z,38.42
2022-12-01T19:20:53.060Z,37.15
2022-12-01T19:23:20.417Z,36.65
2022-12-01T19:25:47.657Z,34.05
2022-12-01T19:28:14.898Z,34.90
2022-12-01T19:30:47.946Z,35.22
2022-12-01T19:33:15.768Z,34.45
2022-12-01T19:35:42.923Z,31.48
2022-12-01T19:38:10.137Z,33.28
2022-12-01T19:40:38.640Z,32.33
2022-12-01T19:43:05.916Z,33.95
2022-12-01T19:45:35.279Z,29.02
2022-12-01T19:48:02.726Z,31.63
2022-12-01T19:50:29.962Z,34.78
2022-12-01T19:52:57.121Z,31.52
2022-12-01T19:55:24.341Z,31.77
2022-12-01T19:57:52.007Z,31.10
2022-12-01T20:00:21.856Z,35.45
2022-12-01T20:02:49.555Z,35.28
2022-12-01T20:05:16.898Z,33.75
2022-12-01T20:07:44.169Z,33.70
2022-12-01T20:10:11.581Z,34.15
2022-12-01T20:12:38.884Z,30.90
2022-12-01T20:15:08.616Z,28.65
2022-12-01T20:17:36.593Z,32.42
2022-12-01T20:20:04.219Z,32.58
2022-12-01T20:22:32.627Z,27.85
2022-12-01T20:24:59.913Z,28.50
2022-12-01T20:27:27.763Z,28.42
2022-12-01T20:29:55.017Z,29.65
2022-12-01T20:32:23.844Z,28.10
2022-12-01T20:34:51.414Z,30.58
2022-12-01T20:37:18.780Z,25.75
2022-12-01T20:39:46.054Z,27.67
2022-12-01T20:42:13.258Z,26.50
2022-12-01T20:44:40.603Z,25.33
2022-12-01T20:47:07.740Z,31.48
2022-12-01T20:49:34.944Z,27.50
2022-12-01T20:52:02.147Z,31.45
2022-12-01T20:54:30.315Z,25.35
2022-12-01T20:56:58.148Z,24.60
2022-12-01T20:59:25.302Z,26.73
2022-12-01T21:01:52.430Z,27.17
2022-12-01T21:04:19.709Z,23.13
2022-12-01T21:06:47.147Z,23.63
2022-12-01T21:09:15.075Z,26.83
2022-12-01T21:12:27.219Z,27.08
2022-12-01T21:15:02.724Z,33.17
2022-12-01T21:17:29.869Z,31.17
2022-12-01T21:20:01.499Z,29.52
2022-12-01T21:22:28.821Z,29.42
2022-12-01T21:25:01.739Z,29.10
2022-12-01T21:27:29.293Z,29.77
2022-12-01T21:29:56.479Z,29.23
2022-12-01T21:32:29.801Z,28.80
2022-12-01T21:35:00.684Z,28.17
2022-12-01T21:37:28.752Z,27.85
2022-12-01T21:39:57.333Z,28.48
2022-12-01T21:42:30.307Z,28.63
2022-12-01T21:44:57.833Z,32.45
2022-12-01T21:47:26.578Z,32.67
2022-12-01T21:49:54.786Z,30.23
2022-12-01T21:52:22.040Z,26.48
2022-12-01T21:54:49.717Z,25.85
2022-12-01T21:57:32.421Z,23.92
2022-12-01T22:00:19.532Z,29.35
2022-12-01T22:02:51.959Z,23.27
2022-12-01T22:05:31.164Z,25.20
2022-12-01T22:08:10.272Z,23.83
2022-12-01T22:10:53.242Z,22.55
2022-12-01T22:13:22.870Z,23.80
2022-12-01T22:15:50.061Z,23.67
2022-12-01T22:18:22.670Z,24.75
2022-12-01T22:20:49.844Z,22.98
2022-12-01T22:23:16.995Z,24.77
2022-12-01T22:25:44.165Z,24.90
2022-12-01T22:28:15.158Z,23.80
2022-12-01T22:30:44.119Z,23.33
2022-12-01T22:33:15.215Z,23.40
2022-12-01T22:35:43.934Z,23.20
2022-12-01T22:38:11.084Z,20.85
2022-12-01T22:40:43.658Z,24.20
2022-12-01T22:43:31.158Z,22.15
2022-12-01T22:46:02.385Z,21.60
2022-12-01T22:48:41.021Z,21.10
2022-12-01T22:51:14.124Z,20.45
2022-12-01T22:53:41.909Z,24.35
2022-12-01T22:56:18.113Z,19.85
2022-12-01T22:58:45.303Z,22.90
2022-12-01T23:01:21.005Z,21.20
2022-12-01T23:03:49.191Z,22.73
2022-12-01T23:06:34.856Z,22.30
2022-12-01T23:09:02.490Z,23.23
2022-12-01T23:11:29.866Z,21.70
2022-12-01T23:13:57.044Z,22.20
2022-12-01T23:16:24.488Z,21.95
2022-12-01T23:18:51.702Z,19.77
2022-12-01T23:21:18.863Z,21.38
2022-12-01T23:23:46.101Z,21.67
2022-12-01T23:26:13.278Z,21.75
2022-12-01T23:28:41.312Z,23.63
2022-12-01T23:31:09.752Z,21.20
2022-12-01T23:33:37.305Z,27.70
2022-12-01T23:36:04.396Z,21.70
2022-12-01T23:38:47.559Z,20.73
2022-12-01T23:41:20.372Z,18.85
2022-12-01T23:43:49.864Z,19.85
2022-12-01T23:46:21.654Z,20.63
2022-12-01T23:48:57.222Z,19.95
2022-12-01T23:51:39.009Z,19.35
2022-12-01T23:54:26.987Z,20.17
2022-12-01T23:56:55.977Z,18.05
2022-12-01T23:59:23.328Z,18.92
